Pocatello, Idaho
Current Conditions -  °F | °C
As of 3:53 PM on Tuesday 21 Oct 2014 (Local Time) from KPIH Reporting Station
Broken Clouds Broken Clouds  
Wind Chill: 52°   Ceiling: 4500
Heat Index: 52°   Visibility: 10mi
Dew Point: 35°   Wind: 22mph
Humidity: 53%   Direction: 240°WSW
Pressure: 30.05"   Gusts: 30mph
Location:  42.87°N, 112.45°W
Report Text: KPIH 212153Z 24019G26KT 10SM BKN045 BKN055 11/02 A3005 RMK AO2 PK WND 24029/2123 SLP144 T01110017
Loading
Personal Weather Stations






























Interactive Weather Map
Tropical Storm Tracking
New forecast layout! Learn more

10-Day Weather Forecast

Advertisements
Track Severe Weather on mobile